Piarco International Airport Port of Spain TT
ICAO: TTPP
IATA: POS
Category: Medium
Scheduled Services:

Elevation: 58 ft
TransAlt. 4100 ft.

Airport Communications:
ACC:123.7
APP:119
ATIS:126.7
GND:121.9
APRON:121.75
RDO:552.6
TWR:118.1

TTPP Zoom In..

If you have problems with the map follow the link
https://www.worldairports.se/pages/airport.php?
ICAO=TTPP

Runways:

(A) RW 10 length 10495 ft width 148 ft
ILS 109.70 / hdg 104

(B) RW 28 length 10495 ft width 148 ft
---- / hdg 284

Location; TTPP
Day. 05 / Time. 15.00 Zulu
* QNH: 1014
* Temperature: 29° c. 84.2°f.
* Wind from: 090° Speed 10 kn.
Dewpoint: 25° c.
Visibility: 10 km or more.
Clouds: Broken 1800 ft.

TTPP 051500Z 09010KT 9999 BKN018 29/25 Q1014 RMK JP TO N


Wind From 090°
Speed 10 kn.

 
 
jpsmedia worldairports.se 2019   terms of use